createdAt,value
2022-11-26T00:39:42.260Z,3.04
2022-11-26T00:42:14.764Z,2.99
2022-11-26T00:44:47.218Z,2.96
2022-11-26T00:47:19.665Z,2.97
2022-11-26T00:49:51.972Z,2.97
2022-11-26T00:52:35.834Z,2.95
2022-11-26T00:55:13.275Z,2.93
2022-11-26T00:57:45.936Z,2.93
2022-11-26T01:00:25.599Z,2.91
2022-11-26T01:02:58.151Z,2.89
2022-11-26T01:05:33.808Z,2.90
2022-11-26T01:08:20.590Z,2.93
2022-11-26T01:10:53.402Z,2.93
2022-11-26T01:13:26.050Z,2.91
2022-11-26T01:16:18.646Z,2.93
2022-11-26T01:18:52.342Z,2.93
2022-11-26T01:21:26.502Z,2.95
2022-11-26T01:23:59.028Z,2.98
2022-11-26T01:26:39.777Z,2.99
2022-11-26T01:29:19.454Z,2.98
2022-11-26T01:31:51.924Z,2.94
2022-11-26T01:34:24.482Z,2.93
2022-11-26T01:36:57.080Z,2.91
2022-11-26T01:39:29.719Z,2.90
2022-11-26T01:42:33.982Z,2.88
2022-11-26T01:45:17.477Z,2.86
2022-11-26T01:47:49.897Z,2.87
2022-11-26T01:50:36.278Z,2.90
2022-11-26T01:53:24.671Z,2.97
2022-11-26T01:56:07.091Z,2.97
2022-11-26T01:58:43.792Z,2.94
2022-11-26T02:01:16.338Z,2.93
2022-11-26T02:04:05.380Z,2.93
2022-11-26T02:06:38.530Z,2.94
2022-11-26T02:09:11.995Z,2.96
2022-11-26T02:11:44.376Z,2.99
2022-11-26T02:14:21.509Z,3.02
2022-11-26T02:17:25.351Z,3.06
2022-11-26T02:20:28.994Z,3.05
2022-11-26T02:23:25.345Z,3.00
2022-11-26T02:26:35.334Z,2.95
2022-11-26T02:29:16.331Z,2.94
2022-11-26T02:32:01.704Z,2.90
2022-11-26T02:34:47.438Z,2.84
2022-11-26T02:37:32.597Z,2.84
2022-11-26T02:40:05.405Z,2.81
2022-11-26T02:42:39.576Z,2.82
2022-11-26T02:45:23.904Z,2.82
2022-11-26T02:47:58.644Z,2.80
2022-11-26T02:50:41.822Z,2.79
2022-11-26T02:53:15.327Z,2.77
2022-11-26T02:55:52.617Z,2.77
2022-11-26T02:58:25.063Z,2.82
2022-11-26T03:00:58.680Z,2.87
2022-11-26T03:03:37.335Z,2.86
2022-11-26T03:06:12.012Z,2.84
2022-11-26T03:08:45.892Z,2.83
2022-11-26T03:11:18.402Z,2.85
2022-11-26T03:13:52.678Z,2.84
2022-11-26T03:16:26.037Z,2.82
2022-11-26T03:18:58.356Z,2.80
2022-11-26T03:21:33.520Z,2.79
2022-11-26T03:24:05.377Z,2.78
2022-11-26T03:26:37.672Z,2.77
2022-11-26T03:29:09.991Z,2.76
2022-11-26T03:31:42.328Z,2.75
2022-11-26T03:34:14.864Z,2.74
2022-11-26T03:36:48.396Z,2.74
2022-11-26T03:39:20.915Z,2.76
2022-11-26T03:41:53.342Z,2.80
2022-11-26T03:44:26.063Z,2.79
2022-11-26T03:46:58.754Z,2.80
2022-11-26T03:49:31.406Z,2.78
2022-11-26T03:52:04.765Z,2.76
2022-11-26T03:54:37.618Z,2.82
2022-11-26T03:57:10.212Z,2.82
2022-11-26T03:59:42.885Z,2.85
2022-11-26T04:02:15.249Z,2.85
2022-11-26T04:04:48.127Z,2.83
2022-11-26T04:07:20.619Z,2.83
2022-11-26T04:09:53.302Z,2.86
2022-11-26T04:12:25.841Z,2.85
2022-11-26T04:14:58.314Z,2.82
2022-11-26T04:17:30.739Z,2.79
2022-11-26T04:20:03.280Z,2.79
2022-11-26T04:22:36.006Z,2.79
2022-11-26T04:25:08.968Z,2.82
2022-11-26T04:27:41.432Z,2.84
2022-11-26T04:30:15.694Z,2.84
2022-11-26T04:32:48.537Z,2.84
2022-11-26T04:35:20.939Z,2.87
2022-11-26T04:37:53.351Z,2.88
2022-11-26T04:40:25.756Z,2.86
2022-11-26T04:42:58.177Z,2.86
2022-11-26T04:45:31.257Z,2.86
2022-11-26T04:48:04.016Z,2.91
2022-11-26T04:50:36.794Z,2.96
2022-11-26T04:53:09.364Z,2.99
2022-11-26T04:55:42.949Z,2.96
2022-11-26T04:58:15.588Z,2.98
2022-11-26T05:00:51.128Z,3.00
2022-11-26T05:03:22.791Z,3.02
2022-11-26T05:05:55.185Z,3.00
2022-11-26T05:08:27.759Z,2.99
2022-11-26T05:11:01.745Z,2.97
2022-11-26T05:13:34.836Z,3.00
2022-11-26T05:16:08.067Z,3.03
2022-11-26T05:18:40.649Z,3.06
2022-11-26T05:21:13.619Z,3.09
2022-11-26T05:23:46.261Z,3.06
2022-11-26T05:26:19.495Z,3.02
2022-11-26T05:28:52.400Z,2.98
2022-11-26T05:31:24.905Z,2.97
2022-11-26T05:33:58.484Z,2.96
2022-11-26T05:36:30.766Z,2.95
2022-11-26T05:39:03.226Z,2.93
2022-11-26T05:41:37.111Z,2.94
2022-11-26T05:44:09.700Z,2.91
2022-11-26T05:46:43.430Z,2.90
2022-11-26T05:49:16.188Z,2.86
2022-11-26T05:51:48.655Z,2.90
2022-11-26T05:54:21.214Z,2.91
2022-11-26T05:56:58.611Z,2.92
2022-11-26T05:59:27.509Z,2.96
2022-11-26T06:02:00.360Z,2.95
2022-11-26T06:04:32.877Z,2.93
2022-11-26T06:07:05.564Z,2.93
2022-11-26T06:09:39.314Z,2.94
2022-11-26T06:12:12.253Z,2.93
2022-11-26T06:14:45.379Z,2.93
2022-11-26T06:17:19.030Z,2.97
2022-11-26T06:19:51.353Z,3.00
2022-11-26T06:22:24.127Z,3.04
2022-11-26T06:24:56.655Z,3.07
2022-11-26T06:27:30.198Z,3.04
2022-11-26T06:30:04.033Z,2.98
2022-11-26T06:32:36.763Z,2.99
2022-11-26T06:35:10.444Z,2.99
2022-11-26T06:37:43.234Z,2.98
2022-11-26T06:40:20.545Z,2.98
2022-11-26T06:42:53.680Z,3.01
2022-11-26T06:45:26.156Z,3.03
2022-11-26T06:47:58.783Z,2.99
2022-11-26T06:50:31.250Z,2.96
2022-11-26T06:53:04.342Z,2.94
2022-11-26T06:55:47.784Z,2.91
2022-11-26T06:58:20.803Z,2.95
2022-11-26T07:00:53.092Z,2.96
2022-11-26T07:03:32.008Z,2.97
2022-11-26T07:06:01.109Z,2.94
2022-11-26T07:08:34.007Z,2.94
2022-11-26T07:11:07.384Z,2.96
2022-11-26T07:13:40.002Z,2.92
2022-11-26T07:16:12.843Z,2.86
2022-11-26T07:18:50.423Z,2.90
2022-11-26T07:21:23.102Z,2.97
2022-11-26T07:23:56.656Z,3.03
2022-11-26T07:26:29.284Z,3.08
2022-11-26T07:29:01.653Z,3.07
2022-11-26T07:31:36.257Z,3.07
2022-11-26T07:34:08.350Z,3.09
2022-11-26T07:36:42.461Z,3.06
2022-11-26T07:39:14.986Z,3.03
2022-11-26T07:41:47.500Z,3.04
2022-11-26T07:44:20.020Z,3.03
2022-11-26T07:46:52.771Z,3.05
2022-11-26T07:49:25.172Z,3.07
2022-11-26T07:51:57.689Z,3.09
2022-11-26T07:54:30.081Z,3.08
2022-11-26T07:57:02.567Z,3.06
2022-11-26T07:59:36.065Z,3.08
2022-11-26T08:02:12.187Z,3.09
2022-11-26T08:04:44.827Z,3.10
2022-11-26T08:07:24.376Z,3.09
2022-11-26T08:09:51.689Z,3.04
2022-11-26T08:12:24.847Z,3.04
2022-11-26T08:14:57.233Z,3.02
2022-11-26T08:17:30.047Z,3.01
2022-11-26T08:20:02.516Z,3.01
2022-11-26T08:22:35.051Z,3.01
2022-11-26T08:25:09.169Z,3.05
2022-11-26T08:27:41.646Z,3.06
2022-11-26T08:30:14.606Z,3.11
2022-11-26T08:32:47.019Z,3.13
2022-11-26T08:35:21.118Z,3.17
2022-11-26T08:37:53.624Z,3.22
2022-11-26T08:40:26.034Z,3.26
2022-11-26T08:42:58.428Z,3.29
2022-11-26T08:45:31.135Z,3.28
2022-11-26T08:48:04.036Z,3.25
2022-11-26T08:50:37.996Z,3.26
2022-11-26T08:53:10.531Z,3.31
2022-11-26T08:55:59.854Z,3.35
2022-11-26T08:58:17.102Z,3.34
2022-11-26T09:00:49.681Z,3.33
2022-11-26T09:03:22.075Z,3.30
2022-11-26T09:05:54.643Z,3.28
2022-11-26T09:08:28.031Z,3.36
2022-11-26T09:11:00.552Z,3.44
2022-11-26T09:13:33.240Z,3.51
2022-11-26T09:16:05.961Z,3.55
2022-11-26T09:18:38.656Z,3.55
2022-11-26T09:21:11.158Z,3.60
2022-11-26T09:23:45.078Z,3.64
2022-11-26T09:26:19.224Z,3.65
2022-11-26T09:28:52.018Z,3.63
2022-11-26T09:31:26.022Z,3.58
2022-11-26T09:34:01.980Z,3.59
2022-11-26T09:36:34.502Z,3.64
2022-11-26T09:39:07.792Z,3.64
2022-11-26T09:42:07.344Z,3.60
2022-11-26T09:44:44.662Z,3.58
2022-11-26T09:47:42.942Z,3.58
2022-11-26T09:50:26.497Z,3.56
2022-11-26T09:53:14.208Z,3.49
2022-11-26T09:55:52.540Z,3.52
2022-11-26T09:58:57.790Z,3.51
2022-11-26T10:01:32.064Z,3.51
2022-11-26T10:04:03.913Z,3.52
2022-11-26T10:07:13.109Z,3.50
2022-11-26T10:10:09.232Z,3.49
2022-11-26T10:13:17.905Z,3.49
2022-11-26T10:15:40.719Z,3.47
2022-11-26T10:18:43.525Z,3.47
2022-11-26T10:21:57.272Z,3.51
2022-11-26T10:24:21.745Z,3.52
2022-11-26T10:26:54.049Z,3.48
2022-11-26T10:29:35.900Z,3.47
2022-11-26T10:32:26.952Z,3.47
2022-11-26T10:35:00.099Z,3.50
2022-11-26T10:37:32.558Z,3.47
2022-11-26T10:40:32.520Z,3.45
2022-11-26T10:43:13.136Z,3.44
2022-11-26T10:45:52.702Z,3.43
2022-11-26T10:48:28.781Z,3.42
2022-11-26T10:51:26.662Z,3.44
2022-11-26T10:54:02.579Z,3.42
2022-11-26T10:56:44.191Z,3.38
2022-11-26T10:59:40.083Z,3.39
2022-11-26T11:02:27.058Z,3.40
2022-11-26T11:05:02.333Z,3.39
2022-11-26T11:07:43.079Z,3.33
2022-11-26T11:10:19.488Z,3.34
2022-11-26T11:13:04.464Z,3.33
2022-11-26T11:15:40.616Z,3.37
2022-11-26T11:18:20.404Z,3.38
2022-11-26T11:26:25.626Z,3.37
2022-11-26T11:28:58.301Z,3.36
2022-11-26T11:31:30.903Z,3.36
2022-11-26T11:34:26.331Z,3.34
2022-11-26T11:37:17.230Z,3.33
2022-11-26T11:40:15.851Z,3.31
2022-11-26T11:42:52.014Z,3.30
2022-11-26T11:45:36.118Z,3.26
2022-11-26T11:48:33.039Z,3.25
2022-11-26T11:51:26.646Z,3.28
2022-11-26T11:54:16.005Z,3.26
2022-11-26T11:56:56.998Z,3.24
2022-11-26T12:00:13.758Z,3.24
2022-11-26T12:02:50.538Z,3.24
2022-11-26T12:05:36.967Z,3.22
2022-11-26T12:08:42.923Z,3.19
2022-11-26T12:11:35.040Z,3.20
2022-11-26T12:14:23.960Z,3.17
2022-11-26T12:17:35.432Z,3.15
2022-11-26T12:20:12.767Z,3.16
2022-11-26T12:22:59.454Z,3.09
2022-11-26T12:25:38.163Z,3.08
2022-11-26T12:28:22.541Z,3.07
2022-11-26T12:31:06.049Z,3.09
2022-11-26T12:34:12.841Z,3.06
2022-11-26T12:36:59.732Z,3.05
2022-11-26T12:39:52.025Z,3.08
2022-11-26T12:43:04.587Z,3.15
2022-11-26T12:45:54.286Z,3.25
2022-11-26T12:49:02.524Z,3.40
2022-11-26T12:51:45.735Z,3.45
2022-11-26T12:54:33.334Z,3.44
2022-11-26T12:57:27.974Z,3.43
2022-11-26T13:00:11.300Z,3.40
2022-11-26T13:02:51.014Z,3.37
2022-11-26T13:05:51.833Z,3.27
2022-11-26T13:08:40.697Z,3.25
2022-11-26T13:11:43.431Z,3.25
2022-11-26T13:14:42.051Z,3.20
2022-11-26T13:17:16.392Z,3.17
2022-11-26T13:20:17.384Z,3.13
2022-11-26T13:23:15.989Z,3.10
2022-11-26T13:26:02.065Z,3.10
2022-11-26T13:29:07.821Z,3.04
2022-11-26T13:31:48.443Z,2.99
2022-11-26T13:34:51.393Z,2.95
2022-11-26T13:38:02.165Z,2.91
2022-11-26T13:41:02.079Z,2.86
2022-11-26T13:44:15.584Z,2.79
2022-11-26T13:47:07.447Z,2.76
2022-11-26T13:50:02.814Z,2.71
2022-11-26T13:52:46.113Z,2.71
2022-11-26T13:55:26.831Z,2.71
2022-11-26T13:58:01.563Z,2.68
2022-11-26T14:00:35.737Z,2.69
2022-11-26T14:03:09.637Z,2.68
2022-11-26T14:05:57.532Z,2.67
2022-11-26T14:08:45.083Z,2.67
2022-11-26T14:11:50.495Z,2.65
2022-11-26T14:14:32.222Z,2.64
2022-11-26T14:17:09.619Z,2.62
